Time;durP1;ratioP1;P1;durP2;ratioP2;P2;SDS_P1;SDS_P2;PMS_P1;PMS_P2;Temp;Humidity;BMP_temperature;BMP_pressure;BME280_temperature;BME280_humidity;BME280_pressure;Samples;Min_cycle;Max_cycle;Signal;HPM_P1;HPM_P2
2022/05/16 00:00:27;;;;;;;20.17;9.13;;;;;;;9.84;58.11;100899.22;3350243;83;20933;-80
2022/05/16 00:05:19;;;;;;;14.28;6.75;;;;;;;9.84;58.11;100899.22;3390583;81;21091;-80
2022/05/16 00:10:11;;;;;;;7.62;4.95;;;;;;;9.74;58.00;100904.60;3379539;82;20953;-80
2022/05/16 00:15:04;;;;;;;12.33;5.55;;;;;;;9.50;57.99;100894.52;3388580;81;20970;-80
2022/05/16 00:19:55;;;;;;;9.68;5.50;;;;;;;9.44;58.20;100915.13;3399968;82;20923;-80
2022/05/16 00:24:46;;;;;;;9.08;5.72;;;;;;;9.34;58.50;100909.27;3422322;81;21022;-80
2022/05/16 00:29:38;;;;;;;8.40;5.05;;;;;;;9.27;58.68;100912.55;3426729;82;21190;-79
2022/05/16 00:34:29;;;;;;;8.65;5.87;;;;;;;9.26;58.75;100913.38;3325493;82;21044;-80
2022/05/16 00:39:22;;;;;;;12.65;5.28;;;;;;;9.26;58.92;100921.16;3390454;81;20950;-80
2022/05/16 00:44:15;;;;;;;9.78;4.90;;;;;;;9.14;58.96;100916.13;3349040;83;20977;-79
2022/05/16 00:49:24;;;;;;;7.20;4.42;;;;;;;9.00;59.17;100920.07;3418408;81;21022;-80
2022/05/16 00:54:23;;;;;;;9.45;4.78;;;;;;;8.83;59.54;100918.73;3405648;82;22934;-80
2022/05/16 00:59:14;;;;;;;5.35;4.17;;;;;;;8.70;59.96;100920.98;3390154;83;20963;-79
2022/05/16 01:09:16;;;;;;;9.38;4.87;;;;;;;8.69;60.23;100924.82;3402360;83;21030;-80
2022/05/16 01:14:07;;;;;;;5.20;3.62;;;;;;;8.54;60.44;100926.58;3350790;84;21421;-79
2022/05/16 01:18:58;;;;;;;6.92;4.30;;;;;;;8.47;60.68;100927.23;3378722;83;21916;-79
2022/05/16 01:23:55;;;;;;;7.87;4.80;;;;;;;8.43;60.79;100929.28;3361613;83;21032;-79
2022/05/16 01:28:46;;;;;;;7.53;4.73;;;;;;;8.36;60.98;100935.53;3477306;80;20953;-79
2022/05/16 01:33:37;;;;;;;6.00;4.20;;;;;;;8.32;61.10;100936.28;3483037;80;21480;-79
2022/05/16 01:38:31;;;;;;;4.40;3.62;;;;;;;8.23;61.31;100941.59;3495247;81;21454;-79
2022/05/16 01:43:27;;;;;;;9.35;4.50;;;;;;;8.19;61.45;100948.00;3468258;80;21073;-79
2022/05/16 01:48:19;;;;;;;6.97;3.87;;;;;;;8.16;61.74;100949.62;3452733;80;20965;-79
2022/05/16 01:53:12;;;;;;;9.05;4.22;;;;;;;8.10;61.88;100952.91;3450363;81;21397;-79
2022/05/16 01:58:04;;;;;;;7.72;4.12;;;;;;;8.08;62.00;100949.36;3412101;80;20997;-79
2022/05/16 02:02:55;;;;;;;6.50;3.50;;;;;;;7.96;62.16;100944.70;3448412;80;21471;-79
2022/05/16 02:07:46;;;;;;;5.12;3.95;;;;;;;7.91;62.28;100950.14;3464382;80;21293;-79
2022/05/16 02:12:38;;;;;;;5.25;3.77;;;;;;;7.75;62.26;100952.66;3473633;81;20922;-79
2022/05/16 02:17:29;;;;;;;5.85;3.50;;;;;;;7.71;62.36;100960.25;3449945;80;21463;-79
2022/05/16 02:27:30;;;;;;;11.75;5.30;;;;;;;7.59;62.66;100965.51;3467193;80;20994;-79
2022/05/16 02:32:21;;;;;;;4.78;4.03;;;;;;;7.54;62.80;100968.35;3510342;81;20957;-79
2022/05/16 02:37:13;;;;;;;8.30;3.70;;;;;;;7.45;62.82;100970.64;3451410;81;21346;-79
2022/05/16 02:42:04;;;;;;;5.87;4.05;;;;;;;7.43;63.11;100982.22;3491548;81;20978;-79
2022/05/16 02:46:55;;;;;;;4.17;3.40;;;;;;;7.54;63.39;100976.11;3516836;81;20975;-79
2022/05/16 02:51:47;;;;;;;5.20;3.22;;;;;;;7.67;63.54;100981.70;3471494;80;21404;-79
2022/05/16 02:56:38;;;;;;;5.03;3.00;;;;;;;7.73;63.77;100984.51;3432639;81;21393;-79
2022/05/16 03:01:29;;;;;;;4.50;3.08;;;;;;;7.81;63.97;100985.62;3454701;80;20951;-79
2022/05/16 03:06:21;;;;;;;7.35;3.27;;;;;;;7.84;63.86;100990.91;3461861;81;21037;-79
2022/05/16 03:11:12;;;;;;;4.35;2.98;;;;;;;7.89;63.87;100990.64;3480269;81;21028;-79
2022/05/16 03:16:04;;;;;;;5.00;2.90;;;;;;;7.95;64.00;100983.48;3465754;80;20911;-79
2022/05/16 03:20:55;;;;;;;4.90;2.58;;;;;;;8.06;64.29;100991.59;3473445;80;21875;-79
2022/05/16 03:25:47;;;;;;;6.80;2.95;;;;;;;8.11;64.15;100982.26;3461095;80;21017;-79
2022/05/16 03:30:39;;;;;;;5.72;2.95;;;;;;;8.17;64.12;100982.44;3445973;80;20931;-79
2022/05/16 03:35:30;;;;;;;6.80;3.40;;;;;;;8.21;64.08;100992.08;3521094;80;20950;-79
2022/05/16 03:45:30;;;;;;;5.47;3.40;;;;;;;8.35;63.87;100986.00;3475827;80;21479;-79
2022/05/16 03:50:22;;;;;;;4.50;3.25;;;;;;;8.37;63.69;100988.22;3490987;80;21393;-79
2022/05/16 03:55:16;;;;;;;6.87;3.45;;;;;;;8.38;63.80;100996.05;3449320;81;21445;-79
2022/05/16 04:00:10;;;;;;;6.65;3.25;;;;;;;8.44;64.03;100991.91;3497014;80;20934;-79
2022/05/16 04:05:04;;;;;;;4.50;3.33;;;;;;;8.50;64.23;100994.70;3476466;80;20950;-79
2022/05/16 04:09:55;;;;;;;6.72;3.98;;;;;;;8.55;64.09;100993.14;3439922;80;22104;-79
2022/05/16 04:14:46;;;;;;;4.92;3.55;;;;;;;8.61;64.22;100989.41;3460279;80;20922;-79
2022/05/16 04:19:37;;;;;;;6.67;4.97;;;;;;;8.70;64.38;100993.56;3474313;80;21020;-79
2022/05/16 04:24:28;;;;;;;9.00;4.47;;;;;;;8.72;64.49;100991.89;3465267;80;20947;-79
2022/05/16 04:29:19;;;;;;;7.97;5.12;;;;;;;8.86;64.84;100997.91;3470814;80;21956;-78
2022/05/16 04:34:11;;;;;;;8.68;4.50;;;;;;;9.15;64.73;101003.47;3479081;80;21173;-78
2022/05/16 04:39:03;;;;;;;4.35;3.17;;;;;;;9.42;64.41;101014.55;3446313;80;21460;-78
2022/05/16 04:43:54;;;;;;;5.60;2.90;;;;;;;9.66;64.10;101017.80;3478239;80;21416;-78
2022/05/16 04:48:46;;;;;;;4.97;2.27;;;;;;;9.82;63.51;101015.56;3438154;80;21052;-79
2022/05/16 04:53:37;;;;;;;4.30;2.25;;;;;;;9.97;63.32;101018.55;3468242;80;21622;-79
2022/05/16 04:58:28;;;;;;;5.87;2.83;;;;;;;10.10;63.11;101018.02;3447756;80;21724;-79
2022/05/16 05:03:19;;;;;;;5.28;2.70;;;;;;;10.25;62.79;101013.59;3431392;80;21135;-79
2022/05/16 05:08:11;;;;;;;5.97;2.75;;;;;;;10.48;62.61;101017.14;3462571;80;21488;-79
2022/05/16 05:18:13;;;;;;;5.45;2.50;;;;;;;10.72;61.55;101018.55;3411215;81;21041;-79
2022/05/16 05:23:05;;;;;;;6.28;2.85;;;;;;;10.72;61.55;101018.55;3446100;81;21194;-79
2022/05/16 05:28:02;;;;;;;5.30;2.12;;;;;;;10.88;61.38;101012.81;3364530;81;21098;-79
2022/05/16 05:32:54;;;;;;;5.58;2.45;;;;;;;10.88;61.38;101012.81;3397231;83;20939;-79
2022/05/16 05:37:45;;;;;;;4.62;1.92;;;;;;;11.11;60.97;101013.70;3350111;83;20940;-79
2022/05/16 05:42:37;;;;;;;2.85;1.72;;;;;;;11.20;60.62;101011.27;3333464;83;21342;-79
2022/05/16 05:47:28;;;;;;;6.03;2.62;;;;;;;11.35;60.06;101012.84;3392930;83;21057;-79
2022/05/16 05:52:20;;;;;;;5.47;2.10;;;;;;;11.67;59.48;101015.16;3356393;83;21014;-79
2022/05/16 05:57:11;;;;;;;5.10;1.90;;;;;;;11.81;59.10;101011.05;3361874;81;21093;-79
2022/05/16 06:02:05;;;;;;;5.17;2.00;;;;;;;11.89;58.90;101010.30;3360094;83;20983;-79
2022/05/16 06:06:56;;;;;;;3.85;2.10;;;;;;;13.07;56.96;101011.95;3349837;83;21018;-79
2022/05/16 06:11:48;;;;;;;4.07;2.30;;;;;;;13.12;56.76;101009.41;3370730;83;20959;-80
2022/05/16 06:16:40;;;;;;;4.95;2.42;;;;;;;14.48;54.05;101012.31;3347992;83;21644;-80
2022/05/16 06:21:32;;;;;;;2.33;2.08;;;;;;;15.50;52.73;101007.47;3355796;82;21011;-80
2022/05/16 06:26:23;;;;;;;2.87;1.67;;;;;;;16.70;51.41;101004.73;3386935;83;21010;-80
2022/05/16 06:31:14;;;;;;;2.62;1.55;;;;;;;18.17;49.65;100999.45;3493301;80;20918;-80
2022/05/16 06:36:05;;;;;;;4.28;1.80;;;;;;;18.25;49.53;100993.64;3399160;82;20962;-81
2022/05/16 06:40:57;;;;;;;5.50;1.85;;;;;;;18.28;48.03;101002.84;3522013;80;20978;-81
2022/05/16 06:45:50;;;;;;;2.33;1.40;;;;;;;17.84;47.44;100998.82;3381270;82;20999;-80
2022/05/16 06:50:43;;;;;;;1.95;1.40;;;;;;;17.05;47.60;101011.62;3429501;80;20943;-80
2022/05/16 06:55:35;;;;;;;3.83;1.85;;;;;;;16.38;47.61;101010.98;3442672;80;20998;-80
2022/05/16 07:00:26;;;;;;;1.37;1.22;;;;;;;16.86;46.91;101007.34;3433140;80;21871;-80
2022/05/16 07:05:17;;;;;;;5.30;1.50;;;;;;;18.08;45.53;101008.72;3423584;80;20970;-80
2022/05/16 07:10:09;;;;;;;5.95;1.62;;;;;;;17.81;45.82;101007.18;3444048;80;20985;-80
2022/05/16 07:15:00;;;;;;;2.50;1.27;;;;;;;18.58;44.35;101011.30;3393993;81;20971;-77
2022/05/16 07:19:51;;;;;;;2.62;1.42;;;;;;;18.47;42.50;101015.79;3434855;80;21299;-83
2022/05/16 07:24:44;;;;;;;1.67;1.30;;;;;;;19.36;40.86;101018.64;3363167;83;20990;-84
2022/05/16 07:29:35;;;;;;;6.22;1.77;;;;;;;23.67;36.22;101006.41;3454339;81;20998;-81
2022/05/16 07:34:26;;;;;;;2.60;1.15;;;;;;;26.89;33.46;101000.44;3365679;82;21105;-81
2022/05/16 07:39:17;;;;;;;1.72;1.32;;;;;;;28.99;30.89;101003.20;3334680;83;20940;-81
2022/05/16 07:44:08;;;;;;;1.12;1.00;;;;;;;31.39;28.68;100996.78;3348215;83;22198;-82
2022/05/16 07:48:59;;;;;;;1.52;0.90;;;;;;;32.94;26.62;101006.72;3318044;83;23267;-81
2022/05/16 07:53:51;;;;;;;1.20;1.10;;;;;;;33.83;24.46;101010.55;3380703;83;21023;-82
2022/05/16 07:58:42;;;;;;;0.95;0.85;;;;;;;32.71;24.79;101014.27;3311990;83;21493;-81
2022/05/16 08:03:33;;;;;;;0.72;0.70;;;;;;;29.64;25.80;101013.33;3327410;83;21022;-80
2022/05/16 08:13:36;;;;;;;1.70;0.98;;;;;;;26.25;26.44;101013.53;3341533;83;21544;-78
2022/05/16 08:18:27;;;;;;;1.57;1.07;;;;;;;26.24;25.77;101019.33;3372943;83;21449;-81
2022/05/16 08:23:25;;;;;;;1.67;1.10;;;;;;;26.39;26.24;101004.93;3349950;83;21315;-81
2022/05/16 08:28:17;;;;;;;1.00;0.90;;;;;;;28.13;25.13;101008.20;3355761;80;20977;-80
2022/05/16 08:33:09;;;;;;;2.00;1.22;;;;;;;30.55;23.32;100997.69;3458664;80;21004;-79
2022/05/16 08:43:21;;;;;;;2.08;1.20;;;;;;;30.12;23.10;101002.50;3436841;80;21511;-83
2022/05/16 08:48:24;;;;;;;4.50;1.20;;;;;;;31.70;21.92;101011.73;3453632;80;20930;-83
2022/05/16 08:53:49;;;;;;;0.80;0.80;;;;;;;30.11;22.01;101006.61;3501082;80;21017;-76
2022/05/16 08:58:44;;;;;;;1.55;0.65;;;;;;;27.98;22.91;101017.00;3471072;80;20974;-76
2022/05/16 09:03:55;;;;;;;1.12;0.70;;;;;;;27.63;22.93;101014.26;3457142;81;21091;-79
2022/05/16 09:09:16;;;;;;;1.37;0.70;;;;;;;25.32;23.04;101015.15;3471175;80;20961;-79
2022/05/16 09:14:28;;;;;;;1.65;0.95;;;;;;;25.03;23.58;101003.83;3486814;80;20906;-76
2022/05/16 09:19:49;;;;;;;2.50;0.80;;;;;;;28.53;21.20;101005.23;3436228;80;20950;-75
2022/05/16 09:24:52;;;;;;;1.02;0.80;;;;;;;30.27;20.36;101010.08;3495477;80;21089;-80
2022/05/16 09:29:46;;;;;;;3.00;1.10;;;;;;;26.98;22.68;101004.48;3480801;81;21175;-75
2022/05/16 09:34:37;;;;;;;2.08;1.00;;;;;;;27.77;21.85;101009.57;3412281;81;21039;-79
2022/05/16 09:39:31;;;;;;;1.20;1.10;;;;;;;30.38;20.27;100995.55;3488969;80;20938;-77
2022/05/16 09:44:34;;;;;;;1.33;1.03;;;;;;;31.78;19.55;100988.35;3401918;80;20946;-79
2022/05/16 09:49:27;;;;;;;2.40;0.98;;;;;;;32.78;18.96;101000.73;3504549;80;21462;-82
2022/05/16 09:54:31;;;;;;;2.67;1.32;;;;;;;33.33;17.87;100993.16;3438007;81;21095;-77
2022/05/16 09:59:42;;;;;;;1.30;1.12;;;;;;;33.62;18.68;100990.95;3502283;80;21595;-79
2022/05/16 10:04:42;;;;;;;2.65;1.10;;;;;;;34.58;18.17;100995.73;3447464;81;20957;-78
2022/05/16 10:09:39;;;;;;;1.35;1.10;;;;;;;34.94;17.50;100995.46;3436553;81;21488;-80
2022/05/16 10:14:30;;;;;;;1.72;1.52;;;;;;;34.53;17.16;101000.14;3480891;81;21030;-80
2022/05/16 10:19:29;;;;;;;2.83;1.20;;;;;;;34.69;17.73;100988.97;3465672;81;22096;-80
2022/05/16 10:24:24;;;;;;;1.67;1.10;;;;;;;34.58;16.57;100990.34;3449160;81;21025;-77
2022/05/16 10:29:35;;;;;;;3.37;1.25;;;;;;;34.19;16.93;100983.43;3457491;81;21002;-77
2022/05/16 10:34:35;;;;;;;1.00;0.90;;;;;;;34.27;15.95;101002.20;3464544;81;20863;-77
2022/05/16 10:39:29;;;;;;;4.58;1.40;;;;;;;34.30;16.88;100988.48;3488465;81;20962;-77
2022/05/16 10:44:46;;;;;;;0.90;0.90;;;;;;;33.93;16.33;100981.88;3413491;81;21925;-81
2022/05/16 10:49:59;;;;;;;2.83;0.93;;;;;;;33.85;15.12;100976.23;3454389;81;20956;-80
2022/05/16 10:54:51;;;;;;;3.58;1.10;;;;;;;33.13;15.60;100979.84;3422159;81;21097;-80
2022/05/16 11:00:11;;;;;;;1.98;1.00;;;;;;;32.50;16.13;100979.83;3441669;81;20935;-75
2022/05/16 11:05:44;;;;;;;0.70;0.70;;;;;;;32.26;16.33;100981.92;3430644;81;21474;-74
2022/05/16 11:10:59;;;;;;;0.70;0.70;;;;;;;31.56;16.22;100967.45;3424872;81;21171;-83
2022/05/16 11:15:57;;;;;;;1.72;0.70;;;;;;;29.45;18.22;100971.16;3453903;81;21741;-77
2022/05/16 11:21:12;;;;;;;1.52;1.00;;;;;;;28.17;18.30;100975.95;3481327;80;20994;-80
2022/05/16 11:26:17;;;;;;;0.93;0.60;;;;;;;27.45;19.72;100961.78;3246515;85;21034;-78
2022/05/16 11:31:15;;;;;;;1.60;0.70;;;;;;;27.15;20.16;100949.84;3301091;86;20975;-78
2022/05/16 11:36:20;;;;;;;1.80;0.65;;;;;;;27.05;20.96;100932.55;3316263;84;22371;-77
2022/05/16 11:41:26;;;;;;;3.50;0.70;;;;;;;26.77;20.90;100930.33;3335555;85;21021;-79
2022/05/16 11:46:43;;;;;;;0.93;0.93;;;;;;;26.51;20.00;100937.73;3338240;84;21441;-78
2022/05/16 11:51:58;;;;;;;2.50;0.60;;;;;;;26.20;20.69;100939.13;3342929;85;20994;-76
2022/05/16 12:02:18;;;;;;;1.50;0.70;;;;;;;25.00;19.67;100925.47;3376136;82;21239;-75
2022/05/16 12:07:20;;;;;;;1.50;1.03;;;;;;;24.79;19.77;100908.59;3454264;81;21013;-77
2022/05/16 12:12:16;;;;;;;1.82;1.02;;;;;;;24.82;19.94;100915.58;3436008;80;20978;-78
2022/05/16 12:17:26;;;;;;;2.33;0.82;;;;;;;24.71;19.93;100916.85;3439372;81;22151;-78
2022/05/16 12:22:38;;;;;;;1.80;0.80;;;;;;;24.94;20.95;100909.78;3456691;81;20924;-79
2022/05/16 12:27:35;;;;;;;0.80;0.80;;;;;;;25.02;22.23;100905.03;3425754;82;21341;-79
2022/05/16 12:32:35;;;;;;;4.65;0.82;;;;;;;25.08;21.37;100902.11;3509137;80;20941;-76
2022/05/16 12:37:27;;;;;;;0.82;0.80;;;;;;;25.11;21.22;100899.33;3476716;80;21029;-79
2022/05/16 12:42:50;;;;;;;9.50;1.87;;;;;;;25.14;22.12;100901.45;3431233;80;20982;-77
2022/05/16 12:48:20;;;;;;;0.70;0.70;;;;;;;25.09;21.26;100885.23;3511413;80;21155;-77
2022/05/16 12:53:38;;;;;;;0.60;0.60;;;;;;;25.15;22.24;100883.22;3506205;81;22058;-77
2022/05/16 12:59:09;;;;;;;0.70;0.70;;;;;;;25.33;21.78;100881.17;3512181;80;21020;-77
2022/05/16 13:04:28;;;;;;;1.90;0.90;;;;;;;25.27;22.69;100869.44;3482568;81;20970;-76
2022/05/16 13:09:30;;;;;;;1.82;0.90;;;;;;;25.35;21.57;100870.00;3481477;81;20993;-77
2022/05/16 13:14:44;;;;;;;1.05;0.72;;;;;;;24.95;22.39;100870.73;3447739;80;20962;-80
2022/05/16 13:19:43;;;;;;;2.35;0.78;;;;;;;25.11;23.53;100867.41;3461181;80;21458;-80
2022/05/16 13:24:35;;;;;;;1.90;0.80;;;;;;;24.76;21.60;100860.00;3459660;81;20945;-80
2022/05/16 13:29:34;;;;;;;0.62;0.60;;;;;;;24.74;21.50;100864.90;3509954;80;20912;-77
2022/05/16 13:34:51;;;;;;;9.30;1.55;;;;;;;24.68;21.14;100875.79;3475787;80;21025;-77
2022/05/16 13:39:47;;;;;;;2.15;0.70;;;;;;;24.54;21.36;100878.13;3431120;80;21490;-77
2022/05/16 13:44:45;;;;;;;0.88;0.75;;;;;;;24.34;22.46;100873.08;3489220;80;20931;-76
2022/05/16 13:49:37;;;;;;;4.90;1.57;;;;;;;24.50;22.84;100869.81;3488631;80;21005;-76
2022/05/16 13:54:34;;;;;;;1.87;0.90;;;;;;;24.71;22.59;100866.34;3460974;80;21211;-79
2022/05/16 13:59:30;;;;;;;2.30;0.90;;;;;;;24.61;21.30;100864.11;3444050;80;21030;-78
2022/05/16 14:04:26;;;;;;;0.87;0.60;;;;;;;24.41;21.27;100864.85;3434878;80;21404;-79
2022/05/16 14:09:25;;;;;;;0.90;0.65;;;;;;;24.52;22.09;100858.65;3484166;80;21137;-79
2022/05/16 14:14:21;;;;;;;0.70;0.70;;;;;;;24.70;23.26;100855.33;3521307;80;20974;-78
2022/05/16 14:19:14;;;;;;;1.17;0.80;;;;;;;24.89;21.77;100861.22;3487505;80;20977;-77
2022/05/16 14:24:09;;;;;;;1.37;0.60;;;;;;;24.63;21.05;100851.17;3450843;80;20985;-77
2022/05/16 14:29:28;;;;;;;2.27;0.75;;;;;;;24.31;21.43;100841.30;3428980;80;20970;-75
2022/05/16 14:34:35;;;;;;;2.85;0.70;;;;;;;24.26;22.29;100837.95;3504349;80;21177;-75
2022/05/16 14:39:31;;;;;;;1.75;0.95;;;;;;;24.27;23.10;100838.36;3474194;80;20959;-75
2022/05/16 14:44:55;;;;;;;3.05;0.70;;;;;;;24.35;22.38;100832.27;3510930;80;20970;-75
2022/05/16 14:49:47;;;;;;;2.70;0.80;;;;;;;24.33;21.04;100831.47;3388901;83;21190;-75
2022/05/16 14:54:43;;;;;;;6.65;0.90;;;;;;;24.09;21.69;100817.79;3340726;82;21493;-75
2022/05/16 14:59:35;;;;;;;2.27;0.70;;;;;;;24.32;22.24;100811.16;3345855;85;21584;-75
2022/05/16 15:04:27;;;;;;;3.75;0.93;;;;;;;24.15;21.28;100816.25;3278809;84;20986;-75
2022/05/16 15:09:20;;;;;;;0.72;0.72;;;;;;;23.86;21.50;100814.22;3371040;82;20968;-75
2022/05/16 15:14:13;;;;;;;2.17;1.20;;;;;;;23.80;21.64;100805.14;3355887;82;20962;-75
2022/05/16 15:19:05;;;;;;;3.15;0.90;;;;;;;23.76;21.66;100815.44;3378497;83;40142;-75
2022/05/16 15:23:57;;;;;;;2.15;0.70;;;;;;;23.69;21.75;100807.30;3387340;82;21235;-75
2022/05/16 15:28:48;;;;;;;1.67;0.90;;;;;;;23.46;21.90;100802.34;3428386;81;21077;-75
2022/05/16 15:33:39;;;;;;;1.65;1.00;;;;;;;23.33;22.23;100799.72;3351892;83;20998;-75
2022/05/16 15:38:31;;;;;;;0.85;0.72;;;;;;;22.68;22.96;100803.17;3401229;81;20915;-75
2022/05/16 15:43:25;;;;;;;1.30;0.60;;;;;;;22.33;23.45;100803.80;3376195;82;20986;-75
2022/05/16 15:48:17;;;;;;;0.88;0.80;;;;;;;22.18;23.87;100798.95;3321464;83;21438;-78
2022/05/16 15:53:09;;;;;;;2.30;1.25;;;;;;;21.96;24.85;100794.27;3421831;82;21712;-75
2022/05/16 15:58:00;;;;;;;1.42;0.80;;;;;;;21.70;25.12;100785.77;3374256;82;21000;-76
2022/05/16 16:02:56;;;;;;;1.52;0.57;;;;;;;21.55;24.73;100780.42;3380760;82;21557;-76
2022/05/16 16:12:57;;;;;;;1.52;0.75;;;;;;;20.98;25.37;100771.77;3355101;83;21172;-76
2022/05/16 16:17:48;;;;;;;0.80;0.80;;;;;;;20.97;25.21;100772.23;3428248;82;21122;-76
2022/05/16 16:22:40;;;;;;;0.57;0.57;;;;;;;21.22;25.89;100769.83;3401773;82;20964;-76
2022/05/16 16:27:31;;;;;;;3.85;1.00;;;;;;;21.22;25.75;100756.60;3365972;82;20937;-75
2022/05/16 16:32:22;;;;;;;3.17;1.22;;;;;;;21.13;25.26;100768.28;3434564;80;20896;-76
2022/05/16 16:37:14;;;;;;;2.50;1.20;;;;;;;20.99;25.58;100766.91;3439567;80;20995;-76
2022/05/16 16:42:07;;;;;;;1.02;0.93;;;;;;;21.02;25.51;100764.20;3420493;80;21214;-75
2022/05/16 16:46:58;;;;;;;1.27;0.70;;;;;;;20.91;26.03;100765.34;3397009;81;22116;-76
2022/05/16 17:02:17;;;;;;;1.40;1.00;;;;;;;20.57;26.42;100759.52;3465028;80;22029;-76
2022/05/16 17:07:09;;;;;;;1.75;1.15;;;;;;;20.43;26.19;100765.58;3471380;80;20946;-75
2022/05/16 17:12:00;;;;;;;0.93;0.60;;;;;;;20.32;27.16;100775.53;3449364;80;21001;-75
2022/05/16 17:16:51;;;;;;;1.00;0.90;;;;;;;20.11;28.01;100774.22;3394038;81;21570;-76
2022/05/16 17:21:43;;;;;;;1.52;1.25;;;;;;;19.94;29.39;100771.50;3431241;80;21162;-75
2022/05/16 17:26:34;;;;;;;3.67;1.02;;;;;;;19.78;29.60;100774.90;3415303;81;21606;-75
2022/05/16 17:31:26;;;;;;;2.98;1.25;;;;;;;19.50;31.51;100773.67;3359813;81;21466;-75
2022/05/16 17:36:19;;;;;;;5.37;1.80;;;;;;;19.33;30.79;100769.55;3460455;81;21489;-76
2022/05/16 17:41:13;;;;;;;10.45;2.55;;;;;;;19.13;31.22;100770.38;3380860;81;21018;-76
2022/05/16 17:46:05;;;;;;;9.35;2.30;;;;;;;18.80;31.82;100776.61;3432768;81;21264;-76
2022/05/16 17:50:59;;;;;;;8.68;2.87;;;;;;;18.41;33.41;100780.27;3414112;81;21832;-76
2022/05/16 17:55:50;;;;;;;9.13;2.60;;;;;;;18.06;33.05;100778.98;3425604;81;21003;-75
2022/05/16 18:00:43;;;;;;;6.33;1.90;;;;;;;17.71;33.18;100777.18;3422781;81;21483;-76
2022/05/16 18:05:36;;;;;;;12.70;2.90;;;;;;;17.45;33.88;100778.77;3396426;82;21549;-76
2022/05/16 18:12:41;;;;;;;9.65;2.77;;;;;;;17.18;34.18;100779.05;3381117;81;20982;-78
2022/05/16 18:15:26;;;;;;;6.83;4.22;;;;;;;16.94;35.36;100782.33;3401831;81;21141;-78
2022/05/16 18:20:19;;;;;;;15.50;5.08;;;;;;;16.69;35.27;100787.73;3446264;80;21068;-78
2022/05/16 18:25:12;;;;;;;10.13;4.33;;;;;;;16.43;36.02;100787.03;3472888;80;21454;-78
2022/05/16 18:30:06;;;;;;;9.30;4.08;;;;;;;16.17;37.03;100799.86;3382528;80;20955;-78
2022/05/16 18:34:58;;;;;;;7.65;3.67;;;;;;;15.93;37.13;100800.37;3460256;80;21487;-78
2022/05/16 18:39:49;;;;;;;8.90;2.60;;;;;;;15.72;37.55;100800.41;3460062;80;21242;-78
2022/05/16 18:55:01;;;;;;;8.50;2.70;;;;;;;15.03;39.53;100827.58;3407627;82;22198;-77
2022/05/16 18:59:52;;;;;;;10.10;2.12;;;;;;;14.80;40.50;100834.09;3392075;82;21062;-78
2022/05/16 19:04:43;;;;;;;12.53;2.90;;;;;;;14.63;41.02;100834.95;3429994;82;21057;-78
2022/05/16 19:09:34;;;;;;;7.85;3.08;;;;;;;14.47;41.36;100837.06;3375828;82;21642;-77
2022/05/16 19:14:25;;;;;;;12.15;2.90;;;;;;;14.32;41.74;100841.78;3393766;82;21073;-77
2022/05/16 19:19:20;;;;;;;8.27;2.63;;;;;;;14.08;42.49;100836.91;3446459;82;20949;-77
2022/05/16 19:24:09;;;;;;;15.18;2.72;;;;;;;13.97;42.88;100829.86;3381540;82;21589;-77
2022/05/16 19:34:11;;;;;;;15.15;2.85;;;;;;;13.73;43.83;100832.38;3379919;83;20966;-77
2022/05/16 19:39:04;;;;;;;6.60;2.30;;;;;;;13.66;44.65;100830.56;3377253;83;20961;-77
2022/05/16 19:43:59;;;;;;;14.78;3.00;;;;;;;13.63;45.03;100838.41;3363705;83;20967;-77
2022/05/16 19:48:50;;;;;;;18.25;2.80;;;;;;;13.55;45.85;100841.39;3353482;83;21452;-77
2022/05/16 19:53:42;;;;;;;13.43;2.90;;;;;;;13.49;45.85;100840.06;3305901;83;21911;-78
2022/05/16 19:58:34;;;;;;;17.00;3.15;;;;;;;13.40;45.95;100846.53;3398556;83;20951;-78
2022/05/16 20:03:25;;;;;;;11.53;3.25;;;;;;;13.30;46.35;100844.22;3353308;83;20966;-77
2022/05/16 20:08:18;;;;;;;15.10;2.55;;;;;;;13.21;46.73;100837.19;3370419;83;21514;-78
2022/05/16 20:13:09;;;;;;;6.08;1.87;;;;;;;13.15;47.04;100837.16;3397239;83;20962;-77
2022/05/16 20:18:02;;;;;;;12.70;2.33;;;;;;;13.08;47.41;100835.36;3351522;83;21084;-78
2022/05/16 20:28:00;;;;;;;8.98;2.00;;;;;;;13.03;48.18;100828.77;3205201;87;21148;-78
2022/05/16 20:32:53;;;;;;;9.95;3.30;;;;;;;13.06;48.05;100830.11;3238926;85;21019;-78
2022/05/16 20:37:44;;;;;;;9.38;3.33;;;;;;;13.00;48.48;100829.18;3293764;84;20974;-78
2022/05/16 20:42:35;;;;;;;10.10;1.77;;;;;;;12.96;48.38;100838.28;3266798;84;21559;-77
2022/05/16 20:47:26;;;;;;;8.67;2.00;;;;;;;12.95;48.30;100840.46;3234040;85;21004;-78
2022/05/16 20:52:18;;;;;;;6.15;2.17;;;;;;;12.93;47.98;100839.98;3301376;84;21739;-78
2022/05/16 20:57:09;;;;;;;5.80;1.90;;;;;;;12.96;48.02;100833.05;3307017;84;20993;-77
2022/05/16 21:02:01;;;;;;;7.67;1.87;;;;;;;12.95;48.23;100827.41;3285245;84;21596;-78
2022/05/16 21:06:53;;;;;;;9.53;2.45;;;;;;;12.90;48.35;100831.71;3353847;82;21879;-78
2022/05/16 21:11:44;;;;;;;4.35;1.90;;;;;;;12.86;48.47;100835.16;3352081;82;20936;-77
2022/05/16 21:16:35;;;;;;;5.55;2.10;;;;;;;12.80;48.79;100840.30;3379536;82;20962;-78
2022/05/16 21:21:26;;;;;;;6.87;2.33;;;;;;;12.80;49.08;100836.39;3366139;82;21757;-78
2022/05/16 21:26:18;;;;;;;7.05;3.08;;;;;;;12.80;49.48;100852.05;3324172;82;20973;-77
2022/05/16 21:31:09;;;;;;;6.37;2.60;;;;;;;12.78;49.89;100858.98;3410136;82;21074;-77
2022/05/16 21:36:01;;;;;;;11.55;2.47;;;;;;;12.67;50.45;100864.53;3434952;80;21351;-77
2022/05/16 21:40:52;;;;;;;6.85;3.00;;;;;;;12.65;51.16;100858.42;3465347;80;20965;-77
2022/05/16 21:45:43;;;;;;;8.45;3.62;;;;;;;12.66;51.33;100861.46;3415209;81;21040;-78
2022/05/16 21:50:40;;;;;;;8.58;3.20;;;;;;;12.69;51.30;100854.98;3408294;81;20978;-78
2022/05/16 21:55:31;;;;;;;;;;;;;;;12.66;51.32;100865.38;3467962;80;21792;-77
2022/05/16 22:00:39;;;;;;;11.63;4.77;;;;;;;12.58;51.76;100863.56;3483955;80;20257;-77
2022/05/16 22:05:32;;;;;;;;;;;;;;;12.55;51.62;100857.44;3464666;80;21278;-77
2022/05/16 22:10:24;;;;;;;10.85;3.75;;;;;;;12.50;51.54;100853.48;3386165;81;20176;-77
2022/05/16 22:15:17;;;;;;;8.10;3.85;;;;;;;12.46;51.69;100858.20;3469375;80;21013;-77
2022/05/16 22:20:10;;;;;;;8.83;3.90;;;;;;;12.46;52.28;100860.81;3417514;80;21070;-77
2022/05/16 22:25:01;;;;;;;12.30;4.70;;;;;;;12.43;52.18;100860.80;3440111;80;21028;-77
2022/05/16 22:29:52;;;;;;;9.45;4.15;;;;;;;12.38;52.13;100862.03;3393209;82;20955;-77
2022/05/16 22:34:48;;;;;;;7.22;3.40;;;;;;;12.29;52.12;100861.92;3457241;80;20974;-77
2022/05/16 22:39:37;;;;;;;7.87;2.55;;;;;;;12.20;52.29;100856.17;3471358;81;21013;-77
2022/05/16 22:44:28;;;;;;;4.67;2.50;;;;;;;12.15;52.12;100860.44;3427878;81;21152;-77
2022/05/16 22:49:19;;;;;;;5.90;2.95;;;;;;;12.02;52.24;100855.94;3413924;81;21021;-76
2022/05/16 22:54:10;;;;;;;4.83;2.85;;;;;;;11.87;52.47;100867.41;3424011;82;21041;-76
2022/05/16 22:59:03;;;;;;;4.47;2.77;;;;;;;11.71;52.79;100871.52;3383186;81;20935;-76
2022/05/16 23:03:54;;;;;;;5.50;2.93;;;;;;;11.64;53.15;100877.95;3381619;82;21723;-77
2022/05/16 23:08:46;;;;;;;6.15;2.92;;;;;;;11.58;53.66;100879.58;3430335;82;21698;-76
2022/05/16 23:13:37;;;;;;;7.35;4.03;;;;;;;11.57;53.82;100870.00;3373293;82;20965;-77
2022/05/16 23:18:29;;;;;;;8.13;3.72;;;;;;;11.48;54.29;100875.08;3406775;81;21066;-76
2022/05/16 23:23:20;;;;;;;7.40;4.03;;;;;;;11.43;54.67;100874.59;3425891;81;21415;-77
2022/05/16 23:28:14;;;;;;;9.70;4.65;;;;;;;11.42;54.72;100878.46;3429195;81;21462;-76
2022/05/16 23:33:08;;;;;;;5.53;4.00;;;;;;;11.41;54.75;100875.39;3384135;81;21140;-77
2022/05/16 23:38:01;;;;;;;6.87;4.85;;;;;;;11.42;54.80;100879.33;3358142;82;20965;-76
2022/05/16 23:42:54;;;;;;;9.05;6.25;;;;;;;11.47;54.74;100881.16;3352279;83;20963;-76
2022/05/16 23:47:45;;;;;;;11.40;6.50;;;;;;;11.52;54.06;100874.26;3316074;84;20958;-77
2022/05/16 23:52:38;;;;;;;10.58;6.20;;;;;;;11.56;53.84;100874.34;3373040;83;21070;-77
2022/05/16 23:57:30;;;;;;;12.85;6.10;;;;;;;11.63;53.43;100870.98;3358753;84;21850;-77
